Lewisville, OH (43754)

8:48 AM EDT on May 29, 2015 (GMT -0400)
Jerusalem | | Change Station
CLOSE
Current Station
Personal Weather Station
Location: Jerusalem, OH
Elevation: 1253 ft
Nearby Weather Stations

Elev 1253 ft 39.86 °N, 81.11 °W | Updated 1 second ago

Partly Cloudy
Partly Cloudy
71.1 °F
Feels Like 72 °F
N
3.1
Wind Variable Wind from SE
Gusts 6.0 mph

Today
High -- | Low -- °F
--% Chance of Precip.
Yesterday
High -- | Low -- °F
Precip. -- in
6:00 AM 8:44 PM
Waxing Gibbous, 83% visible
Pressure 30.20 in
Visibility 6.0 miles
Clouds Mostly Cloudy 10000 ft
Heat Index 72 °F
Dew Point 64 °F
Humidity 79%
Rainfall 0.00 in
Snow Depth Not available.
UV 1 out of 12
Pollen 8.10 out of 12
Air Quality Not available.
Flu Activity Local Activity
METAR KPKB 291153Z 00000KT 6SM BR BKN100 19/17 A3022 RMK AO2 SLP226 T01890172 10189 20161 51009

More Conditions Fewer Conditions

Pressure 30.20 in
Visibility 6.0 miles
Clouds Mostly Cloudy 10000 ft
Heat Index 72 °F
Dew Point 64 °F
Humidity 79%
Rainfall 0.00 in
Snow Depth Not available.
UV 1 out of 12
Pollen 8.10 out of 12
Air Quality Not available.
Flu Activity Local Activity
METAR KPKB 291153Z 00000KT 6SM BR BKN100 19/17 A3022 RMK AO2 SLP226 T01890172 10189 20161 51009

More Conditions Fewer Conditions

10-Day Weather Forecast

Almanac

Astronomy

May. 29, 2015 Rise Set
Actual Time
Civil Twilight
Nautical Twilight
Astronomical Twilight
Moon
Length of Visible Light
Length of Day
Tomorrow will be .
, % of the Moon is Illuminated

Today's Extremes

State Highs State Lows

Community

WunderPhotos

Upload Photos

1,825,249 photos uploaded!

WunderBlogs® & News

Nearby

Air Quality

  Air Quality AQ Index Pollutant
Not available.

Snow Depth

Station Depth Elevation

Earthquake Activity

City Distance Mag. Time & Date
Minimum magnitude displayed is 2.5.

Coastal Water Temperatures

Place Temperature

Stations

Nearby Weather Stations

Station Location Temp. Windchill Dew Point Humidity Wind Precip. Elev Updated Type